createdAt,value
2023-04-11T00:00:02.589Z,97455.09
2023-04-11T00:01:12.512Z,97447.31
2023-04-11T00:02:20.309Z,97457.22
2023-04-11T00:03:26.473Z,97452.66
2023-04-11T00:04:29.503Z,97457.22
2023-04-11T00:05:32.807Z,97452.91
2023-04-11T00:06:35.114Z,97445.72
2023-04-11T00:07:38.541Z,97451.06
2023-04-11T00:08:40.975Z,97454.75
2023-04-11T00:09:44.683Z,97457.44
2023-04-11T00:10:47.053Z,97459.28
2023-04-11T00:11:50.682Z,97458.47
2023-04-11T00:12:56.807Z,97460.13
2023-04-11T00:14:00.199Z,97459.28
2023-04-11T00:15:05.475Z,97457.91
2023-04-11T00:16:10.155Z,97455.81
2023-04-11T00:17:12.734Z,97456.63
2023-04-11T00:18:16.116Z,97453.13
2023-04-11T00:19:18.507Z,97447.78
2023-04-11T00:20:22.122Z,97442.44
2023-04-11T00:21:24.529Z,97447.78
2023-04-11T00:22:28.206Z,97444.31
2023-04-11T00:23:33.309Z,97445.13
2023-04-11T00:24:36.751Z,97446.97
2023-04-11T00:25:39.278Z,97444.56
2023-04-11T00:26:42.564Z,97439.22
2023-04-11T00:27:44.910Z,97441.88
2023-04-11T00:28:48.240Z,97440.03
2023-04-11T00:29:50.602Z,97440.03
2023-04-11T00:30:55.479Z,97436.53
2023-04-11T00:31:57.984Z,97441.88
2023-04-11T00:33:01.457Z,97439.22
2023-04-11T00:34:03.903Z,97436.75
2023-04-11T00:35:08.853Z,97436.53
2023-04-11T00:36:11.968Z,97436.75
2023-04-11T00:37:15.342Z,97430.63
2023-04-11T00:38:17.748Z,97431.41
2023-04-11T00:39:22.758Z,97427.97
2023-04-11T00:40:25.551Z,97427.97
2023-04-11T00:41:29.073Z,97418.31
2023-04-11T00:42:32.140Z,97425.28
2023-04-11T00:43:35.489Z,97416.44
2023-04-11T00:44:38.115Z,97414.59
2023-04-11T00:45:41.496Z,97421.78
2023-04-11T00:46:46.916Z,97412.16
2023-04-11T00:47:51.644Z,97417.50
2023-04-11T00:48:54.523Z,97407.63
2023-04-11T00:49:58.419Z,97412.97
2023-04-11T00:51:01.523Z,97407.63
2023-04-11T00:52:05.940Z,97405.97
2023-04-11T00:53:09.262Z,97397.97
2023-04-11T00:54:13.308Z,97405.97
2023-04-11T00:55:16.986Z,97392.63
2023-04-11T00:56:20.949Z,97389.13
2023-04-11T00:57:26.200Z,97391.00
2023-04-11T00:58:29.925Z,97388.31
2023-04-11T00:59:33.142Z,97382.97
2023-04-11T01:00:39.009Z,97384.88
2023-04-11T01:01:42.664Z,97374.41
2023-04-11T01:02:47.897Z,97379.75
2023-04-11T01:03:51.018Z,97370.69
2023-04-11T01:04:54.943Z,97375.22
2023-04-11T01:05:57.572Z,97370.91
2023-04-11T01:07:06.360Z,97367.41
2023-04-11T01:08:09.210Z,97367.41
2023-04-11T01:09:12.745Z,97364.75
2023-04-11T01:10:17.250Z,97359.41
2023-04-11T01:11:21.187Z,97361.28
2023-04-11T01:12:24.446Z,97356.75
2023-04-11T01:13:28.735Z,97360.47
2023-04-11T01:14:31.992Z,97361.28
2023-04-11T01:15:35.430Z,97363.16
2023-04-11T01:16:38.086Z,97366.63
2023-04-11T01:17:43.072Z,97370.34
2023-04-11T01:18:46.872Z,97372.19
2023-04-11T01:19:50.392Z,97372.19
2023-04-11T01:20:53.361Z,97375.69
2023-04-11T01:21:59.044Z,97374.88
2023-04-11T01:23:03.515Z,97378.59
2023-04-11T01:24:08.863Z,97378.59
2023-04-11T01:25:12.641Z,97374.31
2023-04-11T01:26:16.367Z,97375.34
2023-04-11T01:27:19.968Z,97376.97
2023-04-11T01:28:23.919Z,97371.63
2023-04-11T01:29:26.268Z,97379.66
2023-04-11T01:30:29.540Z,97380.69
2023-04-11T01:31:33.029Z,97387.66
2023-04-11T01:32:36.631Z,97387.66
2023-04-11T01:33:39.400Z,97386.03
2023-04-11T01:34:43.082Z,97393.00
2023-04-11T01:35:45.604Z,97385.22
2023-04-11T01:36:49.758Z,97387.66
2023-04-11T01:37:52.293Z,97386.03
2023-04-11T01:38:56.274Z,97378.84
2023-04-11T01:40:00.721Z,97381.72
2023-04-11T01:41:04.362Z,97379.06
2023-04-11T01:42:07.218Z,97378.25
2023-04-11T01:43:11.360Z,97372.91
2023-04-11T01:44:14.219Z,97375.34
2023-04-11T01:45:17.913Z,97378.25
2023-04-11T01:46:20.819Z,97383.59
2023-04-11T01:47:24.553Z,97382.81
2023-04-11T01:48:26.969Z,97380.13
2023-04-11T01:49:30.833Z,97375.81
2023-04-11T01:50:33.560Z,97372.34
2023-04-11T01:51:37.589Z,97370.47
2023-04-11T01:52:39.960Z,97375.00
2023-04-11T01:53:43.422Z,97372.13
2023-04-11T01:54:45.849Z,97365.97
2023-04-11T01:55:52.739Z,97370.47
2023-04-11T01:56:55.233Z,97362.69
2023-04-11T01:57:58.490Z,97369.66
2023-04-11T01:59:01.254Z,97367.22
2023-04-11T02:00:06.151Z,97376.03
2023-04-11T02:01:09.536Z,97372.56
2023-04-11T02:02:13.165Z,97377.91
2023-04-11T02:03:17.647Z,97376.31
2023-04-11T02:04:21.524Z,97373.63
2023-04-11T02:05:24.128Z,97381.66
2023-04-11T02:06:27.783Z,97377.91
2023-04-11T02:07:30.279Z,97368.28
2023-04-11T02:08:33.572Z,97376.31
2023-04-11T02:09:36.986Z,97372.56
2023-04-11T02:10:40.333Z,97369.88
2023-04-11T02:11:44.034Z,97360.28
2023-04-11T02:12:47.472Z,97361.09
2023-04-11T02:13:50.401Z,97359.47
2023-04-11T02:14:53.758Z,97362.94
2023-04-11T02:15:56.145Z,97362.13
2023-04-11T02:17:00.044Z,97363.97
2023-04-11T02:18:02.423Z,97358.66
2023-04-11T02:19:05.712Z,97359.69
2023-04-11T02:20:09.825Z,97357.00
2023-04-11T02:21:13.458Z,97361.56
2023-04-11T02:22:16.493Z,97360.75
2023-04-11T02:23:19.783Z,97361.78
2023-04-11T02:24:22.358Z,97358.31
2023-04-11T02:25:25.655Z,97359.13
2023-04-11T02:26:28.016Z,97361.22
2023-04-11T02:27:33.179Z,97358.31
2023-04-11T02:28:36.733Z,97359.34
2023-04-11T02:29:40.006Z,97355.88
2023-04-11T02:30:42.439Z,97356.91
2023-04-11T02:31:46.083Z,97353.22
2023-04-11T02:32:49.527Z,97353.44
2023-04-11T02:33:52.901Z,97356.91
2023-04-11T02:34:56.053Z,97348.09
2023-04-11T02:35:59.395Z,97345.41
2023-04-11T02:37:02.038Z,97346.47
2023-04-11T02:38:04.431Z,97352.63
2023-04-11T02:39:07.781Z,97348.91
2023-04-11T02:40:10.785Z,97348.09
2023-04-11T02:41:14.069Z,97352.63
2023-04-11T02:42:16.761Z,97345.41
2023-04-11T02:43:21.310Z,97348.09
2023-04-11T02:44:23.784Z,97345.69
2023-04-11T02:45:27.053Z,97349.13
2023-04-11T02:46:29.758Z,97344.03
2023-04-11T02:47:33.134Z,97350.19
2023-04-11T02:48:35.570Z,97346.72
2023-04-11T02:49:41.232Z,97341.59
2023-04-11T02:50:43.970Z,97338.69
2023-04-11T02:51:47.256Z,97332.53
2023-04-11T02:52:49.726Z,97334.19
2023-04-11T02:53:53.428Z,97328.25
2023-04-11T02:54:56.004Z,97321.88
2023-04-11T02:55:59.363Z,97321.03
2023-04-11T02:57:02.342Z,97322.91
2023-04-11T02:58:05.828Z,97330.91
2023-04-11T02:59:09.949Z,97329.88
2023-04-11T03:00:23.840Z,97321.03
2023-04-11T03:01:36.649Z,97333.59
2023-04-11T03:02:46.067Z,97321.53
2023-04-11T03:03:56.420Z,97335.44
2023-04-11T03:05:09.152Z,97332.19
2023-04-11T03:06:14.280Z,97333.25
2023-04-11T03:07:25.927Z,97330.56
2023-04-11T03:08:31.219Z,97331.63
2023-04-11T03:09:44.265Z,97325.47
2023-04-11T03:10:53.807Z,97325.47
2023-04-11T03:12:00.675Z,97327.34
2023-04-11T03:13:09.915Z,97317.69
2023-04-11T03:14:18.014Z,97323.03
2023-04-11T03:15:21.212Z,97317.69
2023-04-11T03:16:25.794Z,97311.31
2023-04-11T03:17:28.269Z,97315.03
2023-04-11T03:18:31.666Z,97319.31
2023-04-11T03:19:34.143Z,97320.38
2023-04-11T03:20:37.659Z,97322.00
2023-04-11T03:21:50.436Z,97330.00
2023-04-11T03:22:53.749Z,97326.78
2023-04-11T03:23:56.107Z,97327.56
2023-04-11T03:24:59.345Z,97332.91
2023-04-11T03:26:03.469Z,97333.72
2023-04-11T03:27:06.838Z,97339.88
2023-04-11T03:28:09.314Z,97336.38
2023-04-11T03:29:12.591Z,97338.03
2023-04-11T03:30:16.465Z,97336.38
2023-04-11T03:31:20.315Z,97342.53
2023-04-11T03:32:22.986Z,97343.38
2023-04-11T03:33:26.274Z,97331.88
2023-04-11T03:34:28.694Z,97330.00
2023-04-11T03:35:31.930Z,97335.34
2023-04-11T03:36:35.599Z,97331.03
2023-04-11T03:37:38.023Z,97334.78
2023-04-11T03:38:41.450Z,97329.44
2023-04-11T03:39:43.839Z,97332.13
2023-04-11T03:40:47.496Z,97336.38
2023-04-11T03:41:50.185Z,97327.56
2023-04-11T03:42:54.048Z,97324.09
2023-04-11T03:43:56.375Z,97320.38
2023-04-11T03:44:59.604Z,97312.34
2023-04-11T03:46:03.448Z,97293.66
2023-04-11T03:47:06.862Z,97296.34
2023-04-11T03:48:09.824Z,97292.06
2023-04-11T03:49:13.287Z,97285.09
2023-04-11T03:50:15.656Z,97285.66
2023-04-11T03:51:18.931Z,97291.25
2023-04-11T03:52:21.250Z,97292.06
2023-04-11T03:53:24.598Z,97296.59
2023-04-11T03:54:26.923Z,97290.44
2023-04-11T03:55:30.256Z,97298.44
2023-04-11T03:56:32.637Z,97301.13
2023-04-11T03:57:36.439Z,97288.78
2023-04-11T03:58:39.339Z,97295.78
2023-04-11T03:59:42.627Z,97287.97
2023-04-11T04:00:44.988Z,97291.47
2023-04-11T04:01:49.899Z,97294.13
2023-04-11T04:02:52.492Z,97302.16
2023-04-11T04:03:56.870Z,97294.13
2023-04-11T04:04:59.979Z,97297.88
2023-04-11T04:06:03.306Z,97298.66
2023-04-11T04:07:05.649Z,97290.66
2023-04-11T04:08:09.406Z,97288.78
2023-04-11T04:09:12.438Z,97287.19
2023-04-11T04:10:15.844Z,97284.53
2023-04-11T04:11:18.231Z,97284.53
2023-04-11T04:12:22.778Z,97285.56
2023-04-11T04:13:25.297Z,97294.13
2023-04-11T04:14:28.653Z,97304.00
2023-04-11T04:15:31.026Z,97308.56
2023-04-11T04:16:34.347Z,97306.94
2023-04-11T04:17:38.147Z,97313.91
2023-04-11T04:18:41.448Z,97312.25
2023-04-11T04:19:44.451Z,97317.59
2023-04-11T04:20:47.843Z,97324.00
2023-04-11T04:21:50.319Z,97315.97
2023-04-11T04:22:53.966Z,97324.59
2023-04-11T04:23:56.865Z,97309.00
2023-04-11T04:25:00.479Z,97316.78
2023-04-11T04:26:03.334Z,97318.66
2023-04-11T04:27:09.414Z,97310.63
2023-04-11T04:28:11.751Z,97312.50
2023-04-11T04:29:18.199Z,97315.16
2023-04-11T04:30:22.146Z,97309.00
2023-04-11T04:31:29.977Z,97314.34
2023-04-11T04:32:32.438Z,97314.59
2023-04-11T04:33:37.153Z,97318.09
2023-04-11T04:34:46.696Z,97318.09
2023-04-11T04:35:52.069Z,97312.16
2023-04-11T04:36:59.625Z,97311.09
2023-04-11T04:38:06.427Z,97310.53
2023-04-11T04:39:10.371Z,97312.16
2023-04-11T04:40:13.990Z,97307.88
2023-04-11T04:41:17.335Z,97307.88
2023-04-11T04:42:19.962Z,97315.88
2023-04-11T04:43:27.488Z,97305.22
2023-04-11T04:44:30.243Z,97312.41
2023-04-11T04:45:34.046Z,97311.59
2023-04-11T04:46:37.834Z,97314.25
2023-04-11T04:47:41.232Z,97307.06
2023-04-11T04:48:44.964Z,97308.91
2023-04-11T04:49:48.392Z,97315.28
2023-04-11T04:50:50.820Z,97313.22
2023-04-11T04:51:54.421Z,97306.25
2023-04-11T04:52:56.744Z,97310.53
2023-04-11T04:54:00.729Z,97304.38
2023-04-11T04:55:04.045Z,97304.13
2023-04-11T04:56:07.339Z,97302.53
2023-04-11T04:57:10.897Z,97296.13
2023-04-11T04:58:13.223Z,97291.84
2023-04-11T04:59:16.753Z,97290.00
2023-04-11T05:00:21.797Z,97279.53
2023-04-11T05:01:29.904Z,97268.88
2023-04-11T05:02:32.714Z,97277.69
2023-04-11T05:03:39.024Z,97276.88
2023-04-11T05:04:44.875Z,97273.38
2023-04-11T05:05:53.877Z,97275.25
2023-04-11T05:06:57.375Z,97271.75
2023-04-11T05:08:00.277Z,97284.31
2023-04-11T05:09:05.984Z,97276.31
2023-04-11T05:10:09.100Z,97280.84
2023-04-11T05:11:12.405Z,97270.97
2023-04-11T05:12:16.098Z,97286.19
2023-04-11T05:13:19.568Z,97288.03
2023-04-11T05:14:22.150Z,97282.69
2023-04-11T05:15:25.501Z,97288.03
2023-04-11T05:16:28.072Z,97284.53
2023-04-11T05:17:31.979Z,97296.84
2023-04-11T05:18:34.414Z,97294.41
2023-04-11T05:19:37.733Z,97298.72
2023-04-11T05:20:41.699Z,97301.38
2023-04-11T05:21:45.099Z,97298.94
2023-04-11T05:22:49.451Z,97298.94
2023-04-11T05:23:52.800Z,97297.91
2023-04-11T05:24:57.384Z,97306.72
2023-04-11T05:26:01.249Z,97300.56
2023-04-11T05:27:03.692Z,97308.00
2023-04-11T05:28:07.228Z,97313.09
2023-04-11T05:29:11.544Z,97320.06
2023-04-11T05:30:15.355Z,97314.16
2023-04-11T05:31:18.970Z,97321.09
2023-04-11T05:32:22.361Z,97316.84
2023-04-11T05:33:26.209Z,97308.81
2023-04-11T05:34:31.376Z,97308.81
2023-04-11T05:35:34.839Z,97310.44
2023-04-11T05:36:38.645Z,97312.28
2023-04-11T05:37:43.279Z,97300.81
2023-04-11T05:38:46.254Z,97307.75
2023-04-11T05:39:49.847Z,97302.66
2023-04-11T05:40:52.657Z,97301.84
2023-04-11T05:41:56.875Z,97299.19
2023-04-11T05:42:59.502Z,97309.88
2023-04-11T05:44:02.928Z,97303.72
2023-04-11T05:45:06.453Z,97308.00
2023-04-11T05:46:10.727Z,97308.00
2023-04-11T05:47:13.143Z,97312.53
2023-04-11T05:48:25.206Z,97305.34
2023-04-11T05:49:35.852Z,97305.56
2023-04-11T05:50:38.812Z,97301.03
2023-04-11T05:51:43.400Z,97299.41
2023-04-11T05:52:45.903Z,97304.75
2023-04-11T05:53:49.275Z,97302.91
2023-04-11T05:54:51.970Z,97299.41
2023-04-11T05:55:55.507Z,97295.91
2023-04-11T05:56:57.921Z,97291.66
2023-04-11T05:58:01.544Z,97289.78
2023-04-11T05:59:04.997Z,97287.13
2023-04-11T06:00:13.212Z,97280.16
2023-04-11T06:01:18.743Z,97290.03
2023-04-11T06:02:22.209Z,97278.53
2023-04-11T06:03:24.799Z,97288.38
2023-04-11T06:04:28.849Z,97295.34
2023-04-11T06:05:31.909Z,97297.22
2023-04-11T06:06:36.537Z,97300.69
2023-04-11T06:07:41.459Z,97297.00
2023-04-11T06:08:44.856Z,97300.69
2023-04-11T06:09:47.786Z,97289.19
2023-04-11T06:10:51.039Z,97286.53
2023-04-11T06:11:53.745Z,97296.16
2023-04-11T06:12:57.535Z,97300.47
2023-04-11T06:13:59.953Z,97298.84
2023-04-11T06:15:04.040Z,97300.47
2023-04-11T06:16:09.353Z,97301.50
2023-04-11T06:17:11.978Z,97303.38
2023-04-11T06:18:15.944Z,97312.19
2023-04-11T06:19:18.270Z,97307.66
2023-04-11T06:20:22.716Z,97302.31
2023-04-11T06:21:26.411Z,97301.50
2023-04-11T06:22:28.811Z,97298.03
2023-04-11T06:23:33.736Z,97302.31
2023-04-11T06:24:38.192Z,97304.19
2023-04-11T06:25:41.662Z,97301.72
2023-04-11T06:26:44.019Z,97301.16
2023-04-11T06:27:48.011Z,97303.03
2023-04-11T06:28:51.342Z,97304.88
2023-04-11T06:29:53.857Z,97309.66
2023-04-11T06:30:57.116Z,97310.94
2023-04-11T06:31:59.785Z,97305.81
2023-04-11T06:33:03.168Z,97304.66
2023-04-11T06:34:05.634Z,97298.97
2023-04-11T06:35:09.603Z,97294.34
2023-04-11T06:36:13.374Z,97294.56
2023-04-11T06:37:15.836Z,97294.22
2023-04-11T06:38:19.232Z,97288.88
2023-04-11T06:39:22.993Z,97294.22
2023-04-11T06:40:26.669Z,97298.75
2023-04-11T06:41:29.067Z,97303.84
2023-04-11T06:42:32.777Z,97304.44
2023-04-11T06:43:35.265Z,97299.66
2023-04-11T06:44:39.407Z,97294.91
2023-04-11T06:45:41.817Z,97299.19
2023-04-11T06:46:45.199Z,97296.06
2023-04-11T06:47:48.630Z,97292.94
2023-04-11T06:48:50.995Z,97288.22
2023-04-11T06:49:54.647Z,97297.81
2023-04-11T06:50:57.965Z,97286.66
2023-04-11T06:52:00.419Z,97293.63
2023-04-11T06:53:03.751Z,97292.34
2023-04-11T06:54:08.001Z,97287.81
2023-04-11T06:55:15.645Z,97293.72
2023-04-11T06:56:18.189Z,97296.41
2023-04-11T06:57:22.086Z,97294.53
2023-04-11T06:58:24.792Z,97290.03
2023-04-11T06:59:28.078Z,97290.03
2023-04-11T07:00:31.347Z,97297.00
2023-04-11T07:01:35.748Z,97292.22
2023-04-11T07:02:41.149Z,97295.47
2023-04-11T07:03:44.215Z,97289.31
2023-04-11T07:04:47.723Z,97301.38
2023-04-11T07:05:51.800Z,97297.66
2023-04-11T07:06:55.600Z,97308.34
2023-04-11T07:07:58.328Z,97309.72
2023-04-11T07:09:02.581Z,97307.88
2023-04-11T07:10:07.037Z,97302.53
2023-04-11T07:11:12.083Z,97298.78
2023-04-11T07:12:15.689Z,97295.09
2023-04-11T07:13:18.323Z,97294.63
2023-04-11T07:14:21.758Z,97287.97
2023-04-11T07:15:25.064Z,97284.53
2023-04-11T07:16:28.140Z,97289.06
2023-04-11T07:17:32.019Z,97294.13
2023-04-11T07:18:34.390Z,97293.09
2023-04-11T07:19:38.143Z,97293.09
2023-04-11T07:20:40.523Z,97295.78
2023-04-11T07:21:43.900Z,97293.09
2023-04-11T07:22:46.265Z,97290.44
2023-04-11T07:23:49.949Z,97278.13
2023-04-11T07:24:52.616Z,97281.38
2023-04-11T07:25:55.942Z,97280.56
2023-04-11T07:27:01.907Z,97282.97
2023-04-11T07:28:08.572Z,97282.97
2023-04-11T07:29:15.030Z,97277.63
2023-04-11T07:30:17.960Z,97276.81
2023-04-11T07:31:22.793Z,97271.47
2023-04-11T07:32:26.413Z,97269.63
2023-04-11T07:33:29.019Z,97280.91
2023-04-11T07:34:33.313Z,97275.56
2023-04-11T07:35:35.971Z,97274.50
2023-04-11T07:36:39.349Z,97274.50
2023-04-11T07:37:42.511Z,97269.16
2023-04-11T07:38:46.973Z,97269.75
2023-04-11T07:39:49.542Z,97271.03
2023-04-11T07:40:52.876Z,97274.00
2023-04-11T07:41:55.642Z,97275.66
2023-04-11T07:43:01.892Z,97274.81
2023-04-11T07:44:04.761Z,97276.69
2023-04-11T07:45:09.282Z,97287.38
2023-04-11T07:46:15.589Z,97283.66
2023-04-11T07:47:19.529Z,97295.16
2023-04-11T07:48:23.112Z,97292.72
2023-04-11T07:49:26.395Z,97290.03
2023-04-11T07:50:28.823Z,97291.66
2023-04-11T07:51:33.157Z,97287.97
2023-04-11T07:52:40.543Z,97286.31
2023-04-11T07:53:43.313Z,97282.63
2023-04-11T07:54:46.635Z,97281.56
2023-04-11T07:55:49.061Z,97284.81
2023-04-11T07:56:52.409Z,97284.00
2023-04-11T07:57:55.003Z,97272.00
2023-04-11T07:59:01.426Z,97274.69
2023-04-11T08:00:04.500Z,97268.31
2023-04-11T08:01:21.728Z,97280.63
2023-04-11T08:02:26.522Z,97282.22
2023-04-11T08:03:30.531Z,97272.34
2023-04-11T08:04:34.824Z,97277.69
2023-04-11T08:05:38.996Z,97273.97
2023-04-11T08:06:41.585Z,97285.47
2023-04-11T08:07:44.939Z,97269.13
2023-04-11T08:08:49.492Z,97279.00
2023-04-11T08:09:51.858Z,97282.94
2023-04-11T08:10:55.323Z,97275.16
2023-04-11T08:11:58.292Z,97278.31
2023-04-11T08:13:02.353Z,97275.09
2023-04-11T08:14:07.251Z,97261.94
2023-04-11T08:15:10.343Z,97259.53
2023-04-11T08:16:15.572Z,97263.25
2023-04-11T08:17:27.714Z,97266.97
2023-04-11T08:18:32.991Z,97265.34
2023-04-11T08:19:36.981Z,97260.00
2023-04-11T08:20:40.985Z,97258.38
2023-04-11T08:21:44.654Z,97257.34
2023-04-11T08:22:47.674Z,97251.75
2023-04-11T08:23:51.665Z,97248.84
2023-04-11T08:24:54.076Z,97248.03
2023-04-11T08:25:57.556Z,97248.84
2023-04-11T08:27:07.101Z,97248.59
2023-04-11T08:28:11.525Z,97252.09
2023-04-11T08:29:16.681Z,97248.38
2023-04-11T08:30:19.135Z,97246.75
2023-04-11T08:31:23.060Z,97247.31
2023-04-11T08:32:25.801Z,97251.88
2023-04-11T08:33:29.219Z,97249.75
2023-04-11T08:34:33.691Z,97258.56
2023-04-11T08:35:37.077Z,97257.53
2023-04-11T08:36:42.846Z,97250.31
2023-04-11T08:37:45.995Z,97246.38
2023-04-11T08:38:49.320Z,97242.63
2023-04-11T08:39:51.699Z,97235.44
2023-04-11T08:40:56.765Z,97233.56
2023-04-11T08:42:01.764Z,97241.59
2023-04-11T08:43:10.095Z,97232.53
2023-04-11T08:44:13.482Z,97232.28
2023-04-11T08:45:19.668Z,97226.13
2023-04-11T08:46:23.234Z,97222.97
2023-04-11T08:47:26.681Z,97221.69
2023-04-11T08:48:33.309Z,97213.44
2023-04-11T08:49:35.891Z,97217.47
2023-04-11T08:50:41.048Z,97207.13
2023-04-11T08:51:45.881Z,97209.31
2023-04-11T08:52:50.815Z,97198.16
2023-04-11T08:53:58.085Z,97203.81
2023-04-11T08:55:01.764Z,97203.56
2023-04-11T08:56:06.562Z,97199.88
2023-04-11T08:57:09.312Z,97194.03
2023-04-11T08:58:12.703Z,97204.22
2023-04-11T08:59:16.167Z,97201.06
2023-04-11T09:00:25.417Z,97199.22
2023-04-11T09:01:32.786Z,97197.91
2023-04-11T09:02:57.788Z,97194.19
2023-04-11T09:04:03.011Z,97188.84
2023-04-11T09:05:05.979Z,97190.44
2023-04-11T09:06:11.664Z,97189.97
2023-04-11T09:07:15.731Z,97191.59
2023-04-11T09:08:20.718Z,97185.75
2023-04-11T09:09:29.995Z,97179.91
2023-04-11T09:10:33.680Z,97185.25
2023-04-11T09:11:51.486Z,97190.13
2023-04-11T09:12:55.048Z,97175.94
2023-04-11T09:14:08.647Z,97176.53
2023-04-11T09:15:21.227Z,97180.59
2023-04-11T09:16:25.177Z,97175.25
2023-04-11T09:17:42.071Z,97179.28
2023-04-11T09:18:47.556Z,97173.94
2023-04-11T09:19:51.020Z,97168.38
2023-04-11T09:21:00.410Z,97174.25
2023-04-11T09:22:06.262Z,97167.06
2023-04-11T09:23:27.131Z,97166.81
2023-04-11T09:24:32.037Z,97171.09
2023-04-11T09:25:45.784Z,97175.41
2023-04-11T09:26:48.177Z,97170.06
2023-04-11T09:28:07.845Z,97170.59
2023-04-11T09:29:10.640Z,97174.09
2023-04-11T09:30:24.548Z,97174.91
2023-04-11T09:31:41.476Z,97172.22
2023-04-11T09:32:46.201Z,97166.34
2023-04-11T09:33:57.922Z,97172.72
2023-04-11T09:35:11.616Z,97175.16
2023-04-11T09:36:22.954Z,97178.63
2023-04-11T09:37:25.632Z,97170.06
2023-04-11T09:38:30.865Z,97173.28
2023-04-11T09:39:34.531Z,97166.06
2023-04-11T09:40:42.817Z,97172.78
2023-04-11T09:41:46.470Z,97175.47
2023-04-11T09:42:50.119Z,97177.09
2023-04-11T09:43:57.182Z,97174.41
2023-04-11T09:45:00.454Z,97171.50
2023-04-11T09:46:12.155Z,97167.19
2023-04-11T09:47:15.946Z,97170.69
2023-04-11T09:48:19.689Z,97160.00
2023-04-11T09:49:22.700Z,97165.91
2023-04-11T09:50:27.683Z,97158.94
2023-04-11T09:51:36.459Z,97166.47
2023-04-11T09:52:43.022Z,97157.88
2023-04-11T09:53:47.262Z,97153.34
2023-04-11T09:54:53.733Z,97153.34
2023-04-11T09:55:56.167Z,97147.19
2023-04-11T09:57:00.531Z,97143.44
2023-04-11T09:58:07.269Z,97137.06
2023-04-11T09:59:10.737Z,97145.31
2023-04-11T10:00:17.324Z,97145.09
2023-04-11T10:01:24.544Z,97145.09
2023-04-11T10:02:28.171Z,97141.31
2023-04-11T10:03:34.868Z,97145.09
2023-04-11T10:04:38.633Z,97137.06
2023-04-11T10:05:42.567Z,97146.69
2023-04-11T10:06:58.193Z,97152.84
2023-04-11T10:08:08.046Z,97152.03
2023-04-11T10:09:13.781Z,97158.19
2023-04-11T10:10:20.126Z,97150.44
2023-04-11T10:11:29.268Z,97152.03
2023-04-11T10:12:32.999Z,97158.19
2023-04-11T10:13:44.232Z,97159.81
2023-04-11T10:14:47.902Z,97152.03
2023-04-11T10:16:06.417Z,97144.59
2023-04-11T10:17:22.019Z,97139.25
2023-04-11T10:18:26.634Z,97141.31
2023-04-11T10:19:30.160Z,97138.66
2023-04-11T10:20:48.339Z,97127.97
2023-04-11T10:21:50.912Z,97133.31
2023-04-11T10:23:01.921Z,97127.16
2023-04-11T10:24:09.317Z,97130.63
2023-04-11T10:25:19.398Z,97124.47
2023-04-11T10:26:21.861Z,97124.47
2023-04-11T10:27:50.199Z,97119.94
2023-04-11T10:28:53.646Z,97121.00
2023-04-11T10:29:56.206Z,97120.19
2023-04-11T10:31:04.980Z,97119.94
2023-04-11T10:32:13.012Z,97126.09
2023-04-11T10:33:20.669Z,97121.56
2023-04-11T10:34:23.403Z,97108.19
2023-04-11T10:35:27.178Z,97099.34
2023-04-11T10:37:08.609Z,97100.16
2023-04-11T10:38:51.885Z,97095.31
2023-04-11T10:40:10.308Z,97108.13
2023-04-11T10:41:21.309Z,97094.78
2023-04-11T10:42:27.727Z,97094.78
2023-04-11T10:43:31.420Z,97095.81
2023-04-11T10:44:35.327Z,97092.88
2023-04-11T10:45:40.325Z,97094.78
2023-04-11T10:46:48.791Z,97096.13
2023-04-11T10:48:12.048Z,97102.28
2023-04-11T10:49:33.367Z,97098.00
2023-04-11T10:50:38.140Z,97101.72
2023-04-11T10:51:42.346Z,97095.56
2023-04-11T10:52:44.851Z,97096.13
2023-04-11T10:53:48.272Z,97102.28
2023-04-11T10:54:52.303Z,97100.16
2023-04-11T10:55:55.903Z,97093.19
2023-04-11T10:56:58.906Z,97096.44
2023-04-11T10:58:07.063Z,97094.59
2023-04-11T10:59:52.327Z,97099.13
2023-04-11T11:01:25.920Z,97101.22
2023-04-11T11:02:41.368Z,97094.50
2023-04-11T11:04:01.076Z,97097.19
2023-04-11T11:05:22.762Z,97099.03
2023-04-11T11:06:26.994Z,97096.38
2023-04-11T11:07:32.473Z,97104.97
2023-04-11T11:08:38.128Z,97097.72
2023-04-11T11:09:49.600Z,97102.84
2023-04-11T11:10:52.210Z,97098.31
2023-04-11T11:12:09.812Z,97092.97
2023-04-11T11:13:20.856Z,97095.38
2023-04-11T11:14:30.536Z,97098.03
2023-04-11T11:15:37.397Z,97096.44
2023-04-11T11:16:43.334Z,97099.66
2023-04-11T11:17:46.692Z,97092.47
2023-04-11T11:18:52.875Z,97086.06
2023-04-11T11:19:56.754Z,97092.19
2023-04-11T11:21:00.261Z,97090.31
2023-04-11T11:22:05.061Z,97090.09
2023-04-11T11:23:09.951Z,97089.28
2023-04-11T11:24:13.281Z,97087.41
2023-04-11T11:25:15.674Z,97074.03
2023-04-11T11:26:19.122Z,97078.09
2023-04-11T11:27:23.032Z,97078.09
2023-04-11T11:29:35.133Z,97078.09
2023-04-11T11:30:38.883Z,97072.72
2023-04-11T11:31:45.623Z,97073.53
2023-04-11T11:32:48.275Z,97075.41
2023-04-11T11:33:52.687Z,97074.59
2023-04-11T11:34:58.816Z,97062.84
2023-04-11T11:36:07.904Z,97069.00
2023-04-11T11:37:10.431Z,97058.31
2023-04-11T11:38:14.796Z,97059.13
2023-04-11T11:39:36.909Z,97055.88
2023-04-11T11:40:59.753Z,97048.94
2023-04-11T11:42:03.509Z,97040.91
2023-04-11T11:43:27.508Z,97045.44
2023-04-11T11:44:31.368Z,97052.66
2023-04-11T11:45:34.866Z,97049.72
2023-04-11T11:46:38.374Z,97034.75
2023-04-11T11:47:44.838Z,97037.97
2023-04-11T11:49:09.392Z,97035.28
2023-04-11T11:50:25.014Z,97029.94
2023-04-11T11:51:48.127Z,97023.22
2023-04-11T11:52:51.386Z,97027.53
2023-04-11T11:54:13.518Z,97025.91
2023-04-11T11:55:32.369Z,97025.91
2023-04-11T11:56:54.259Z,97028.00
2023-04-11T11:58:01.159Z,97024.28
2023-04-11T11:59:28.847Z,97019.19
2023-04-11T12:00:38.941Z,97033.34
2023-04-11T12:01:43.439Z,97028.00
2023-04-11T12:02:46.271Z,97028.81
2023-04-11T12:03:51.820Z,97025.09
2023-04-11T12:04:58.239Z,97041.94
2023-04-11T12:06:03.176Z,97038.22
2023-04-11T12:07:25.178Z,97031.25
2023-04-11T12:08:28.543Z,97026.72
2023-04-11T12:09:31.345Z,97026.72
2023-04-11T12:10:40.019Z,97024.59
2023-04-11T12:11:45.956Z,97022.72
2023-04-11T12:12:53.342Z,97025.41
2023-04-11T12:13:58.400Z,97022.72
2023-04-11T12:15:03.692Z,97020.06
2023-04-11T12:16:07.735Z,97017.38
2023-04-11T12:17:10.587Z,97013.66
2023-04-11T12:18:14.088Z,97013.66
2023-04-11T12:19:17.862Z,97007.50
2023-04-11T12:20:22.660Z,97016.31
2023-04-11T12:21:28.047Z,97012.56
2023-04-11T12:22:30.603Z,97013.38
2023-04-11T12:23:34.447Z,97017.91
2023-04-11T12:24:36.871Z,97014.19
2023-04-11T12:25:41.054Z,97003.50
2023-04-11T12:26:52.979Z,97003.25
2023-04-11T12:28:07.346Z,97007.22
2023-04-11T12:29:12.533Z,97004.31
2023-04-11T12:30:15.594Z,97006.16
2023-04-11T12:31:37.823Z,96998.16
2023-04-11T12:32:47.263Z,96998.97
2023-04-11T12:33:50.843Z,96995.47
2023-04-11T12:34:54.198Z,96996.28
2023-04-11T12:35:57.880Z,96990.13
2023-04-11T12:37:01.673Z,96999.78
2023-04-11T12:38:05.253Z,96989.88
2023-04-11T12:39:08.579Z,96993.34
2023-04-11T12:40:12.628Z,96991.47
2023-04-11T12:41:31.653Z,96986.94
2023-04-11T12:42:39.072Z,96983.72
2023-04-11T12:43:48.759Z,96983.72
2023-04-11T12:44:51.744Z,96981.84
2023-04-11T12:45:55.522Z,96984.53
2023-04-11T12:46:59.064Z,96965.00